Latest Weather Observations for Launceston Airport

IDT60801

Issued at 4:32 pm EDT Sunday 26 February 2017 (issued every 30 minutes, with the page automatically refreshed every 10 minutes)

About weather observations | Map of weather stations | Latest weather observations for TAS | Other Formats
Station Details ID: 091311 Name: LAUNCESTON AIRPORT Lat: -41.55 Lon: 147.21 Height: 166.9 m
Data from the previous 72 hours. | See also: Recent months at Launceston Airport
Date/Time
EDT
Temp
°C
App
Temp
°C
Dew
Point
°C
Rel
Hum
%
Delta-T
°C
Wind Press
QNH
hPa
Press
MSL
hPa
Rain since
9am
mm
Dir  Spd
km/h
Gust
km/h
Spd
kts
Gust
kts
26/04:30pm 21.4 17.0 7.3 40 7.3 NW 20 32 11 17 1024.7 1024.3 0.0
26/04:00pm 21.9 17.6 7.0 38 7.7 NNW 19 32 10 17 1024.9 1024.5 0.0
26/03:30pm 22.1 17.6 6.3 36 8.1 NNW 19 28 10 15 1025.1 1024.7 0.0
26/03:00pm 21.6 16.5 5.9 36 7.9 NNW 22 32 12 17 1025.3 1024.9 0.0
26/02:30pm 20.4 16.3 6.0 39 7.2 NNW 17 30 9 16 1025.7 1025.3 0.0
26/02:00pm 21.0 16.8 7.3 41 7.0 NW 19 28 10 15 1025.8 1025.4 0.0
26/01:30pm 20.4 16.3 6.4 40 7.1 NNW 17 28 9 15 1025.8 1025.4 0.0
26/01:00pm 19.9 16.1 7.6 45 6.3 NW 17 24 9 13 1026.1 1025.7 0.0
26/12:30pm 21.0 17.7 8.0 43 6.8 N 15 26 8 14 1026.4 1026.0 0.0
26/12:00pm 18.4 14.0 6.6 46 5.9 WNW 19 24 10 13 1026.7 1026.3 0.0
26/11:30am 17.5 15.0 6.7 49 5.4 NNW 9 20 5 11 1027.0 1026.6 0.0
26/11:00am 19.4 15.5 7.2 45 6.2 NW 17 28 9 15 1027.1 1026.7 0.0
26/10:30am 18.0 14.9 7.1 49 5.5 NNW 13 24 7 13 1027.2 1026.8 0.0
26/10:00am 17.5 15.0 8.1 54 4.8 NW 11 20 6 11 1027.2 1026.8 0.0
26/09:30am 15.8 13.4 7.1 56 4.3 NW 9 15 5 8 1027.1 1026.7 0.0
26/09:00am 15.5 13.9 7.8 60 3.9 NW 6 11 3 6 1027.1 1026.7 0.0
26/08:30am 14.4 13.4 7.5 63 3.4 NW 2 6 1 3 1027.2 1026.8 0.0
26/08:00am 13.6 11.8 8.0 69 2.8 W 7 9 4 5 1026.8 1026.4 0.0
26/07:30am 11.2 10.2 7.3 77 1.9 SW 2 6 1 3 1026.6 1026.2 0.0
26/07:00am 10.6 9.8 6.6 76 1.9 CALM 0 0 0 0 1026.4 1026.0 0.0
26/06:30am 11.8 9.7 6.7 71 2.4 W 7 9 4 5 1026.2 1025.8 0.0
26/06:00am 12.0 10.0 7.1 72 2.4 N 7 9 4 5 1025.6 1025.2 0.0
26/05:30am 12.5 10.2 7.6 72 2.4 NNW 9 11 5 6 1025.4 1025.0 0.0
26/05:00am 13.4 11.5 7.6 68 2.9 WNW 7 9 4 5 1025.7 1025.3 0.0
26/04:30am 13.2 11.3 7.6 69 2.8 NW 7 9 4 5 1025.6 1025.2 0.0
26/04:00am 12.8 10.9 7.7 71 2.5 NNW 7 9 4 5 1025.5 1025.1 0.0
26/03:30am 12.9 11.0 7.6 70 2.6 NNW 7 11 4 6 1026.2 1025.8 0.0
26/03:00am 13.0 10.3 7.5 69 2.7 N 11 15 6 8 1026.0 1025.6 0.0
26/02:30am 13.1 9.7 7.5 69 2.8 N 15 17 8 9 1026.1 1025.7 0.0
26/02:00am 13.2 9.9 7.9 70 2.6 N 15 19 8 10 1026.3 1025.9 0.0
26/01:30am 13.3 10.4 8.0 70 2.6 N 13 19 7 10 1026.7 1026.3 0.0
26/01:00am 13.1 10.6 8.0 71 2.5 N 11 15 6 8 1026.7 1026.3 0.0
26/12:30am 13.2 10.3 8.1 71 2.5 NNW 13 17 7 9 1026.8 1026.4 0.0
26/12:00am 13.4 10.9 8.0 70 2.7 NNW 11 15 6 8 1026.8 1026.4 0.0
 
Date/Time
EDT
Temp
°C
App
Temp
°C
Dew
Point
°C
Rel
Hum
%
Delta-T
°C
Wind Press
QNH
hPa
Press
MSL
hPa
Rain since
9am
mm
Dir  Spd
km/h
Gust
km/h
Spd
kts
Gust
kts
25/11:30pm 13.6 10.3 8.0 69 2.8 NNW 15 19 8 10 1026.8 1026.4 0.0
25/11:00pm 13.8 10.2 8.2 69 2.8 NNW 17 20 9 11 1026.8 1026.4 0.0
25/10:30pm 13.9 10.0 8.5 70 2.7 NNW 19 22 10 12 1026.7 1026.3 0.0
25/10:00pm 13.9 10.0 8.7 71 2.6 NNW 19 26 10 14 1026.4 1026.0 0.0
25/09:30pm 13.6 8.7 8.4 71 2.6 NNW 24 30 13 16 1025.9 1025.5 0.0
25/09:00pm 14.2 9.7 8.6 69 2.8 NNW 22 30 12 16 1025.9 1025.5 0.0
25/08:30pm 14.6 9.7 8.3 66 3.2 N 24 30 13 16 1025.6 1025.2 0.0
25/08:00pm 15.2 9.9 8.4 64 3.4 NNW 26 35 14 19 1025.1 1024.7 0.0
25/07:30pm 16.3 10.2 8.3 59 4.1 NNW 30 37 16 20 1024.7 1024.3 0.0
25/07:00pm 18.0 11.6 8.6 54 4.9 NNW 32 39 17 21 1024.5 1024.1 0.0
25/06:30pm 18.0 12.3 6.8 48 5.6 NNW 26 33 14 18 1024.2 1023.9 0.0
25/06:00pm 18.2 11.4 6.7 47 5.7 NNW 32 41 17 22 1023.8 1023.5 0.0
25/05:30pm 19.7 15.0 5.0 38 7.2 NNW 19 24 10 13 1023.7 1023.4 0.0
25/05:00pm 20.4 15.6 4.4 35 7.8 NW 19 28 10 15 1023.7 1023.4 0.0
25/04:30pm 20.6 16.9 4.6 35 7.8 N 13 22 7 12 1023.7 1023.4 0.0
25/04:00pm 20.5 17.0 3.3 32 8.2 NNW 11 19 6 10 1023.8 1023.5 0.0
25/03:30pm 20.4 17.0 4.0 34 7.9 NNW 11 17 6 9 1023.9 1023.6 0.0
25/03:00pm 20.4 16.1 3.2 32 8.1 W 15 22 8 12 1024.4 1024.0 0.0
25/02:30pm 20.7 16.2 4.3 34 8.0 W 17 26 9 14 1024.8 1024.4 0.0
25/02:00pm 19.4 16.1 4.4 37 7.2 W 11 28 6 15 1025.3 1024.9 0.0
25/01:30pm 20.0 16.9 3.7 34 7.8 W 9 24 5 13 1025.4 1025.0 0.0
25/01:00pm 19.2 14.9 1.2 30 8.1 S 13 19 7 10 1025.7 1025.3 0.0
25/12:30pm 17.3 13.7 0.5 32 7.4 E 9 17 5 9 1025.8 1025.4 0.0
25/12:00pm 17.5 12.6 -0.2 30 7.6 ESE 15 22 8 12 1026.2 1025.8 0.0
25/11:30am 16.8 11.1 -0.9 30 7.5 SSE 19 24 10 13 1026.5 1026.1 0.0
25/11:00am 16.6 10.7 -1.0 30 7.4 SSE 20 30 11 16 1026.8 1026.4 0.0
25/10:30am 15.7 9.2 -2.3 29 7.3 SE 22 30 12 16 1027.0 1026.6 0.0
25/10:00am 15.2 8.0 0.6 37 6.3 SSE 28 35 15 19 1027.0 1026.6 0.0
25/09:30am 13.5 7.2 1.5 44 5.2 SE 24 32 13 17 1027.0 1026.6 0.0
25/09:00am 12.7 5.7 2.0 48 4.6 SE 28 35 15 19 1027.0 1026.6 0.0
25/08:30am 11.9 5.3 2.1 51 4.3 SSE 26 33 14 18 1026.9 1026.5 0.0
25/08:00am 11.5 6.2 2.8 55 3.8 SSE 20 28 11 15 1026.6 1026.2 0.0
25/07:30am 11.0 5.3 2.6 56 3.7 SSE 22 30 12 16 1026.1 1025.7 0.0
25/07:00am 11.0 4.9 2.6 56 3.6 SSE 24 37 13 20 1025.9 1025.5 0.0
25/06:30am 11.3 5.6 2.9 56 3.7 SSE 22 30 12 16 1025.7 1025.3 0.0
25/06:00am 11.3 5.6 3.1 57 3.6 SSE 22 32 12 17 1025.3 1024.9 0.0
25/05:30am 11.4 6.1 2.9 56 3.7 SSE 20 26 11 14 1025.0 1024.6 0.0
25/05:00am 11.8 6.5 2.8 54 3.9 SSE 20 26 11 14 1024.7 1024.3 0.0
25/04:30am 11.9 6.3 3.4 56 3.8 SSE 22 28 12 15 1024.7 1024.3 0.0
25/04:00am 11.8 5.9 4.1 59 3.5 SSE 24 33 13 18 1024.6 1024.2 0.0
25/03:30am 12.0 6.2 4.5 60 3.4 SSE 24 32 13 17 1024.6 1024.2 0.0
25/03:00am 12.1 7.1 4.8 61 3.3 SSE 20 30 11 16 1024.4 1024.0 0.0
25/02:30am 12.2 6.5 4.9 61 3.4 SSE 24 30 13 16 1024.4 1024.0 0.0
25/02:00am 12.3 7.1 5.5 63 3.2 SSE 22 32 12 17 1024.4 1024.0 0.0
25/01:30am 13.4 6.9 4.8 56 4.0 SSE 28 37 15 20 1024.2 1023.9 0.0
25/01:00am 13.6 7.3 3.9 52 4.4 SSE 26 33 14 18 1024.0 1023.7 0.0
25/12:30am 13.6 8.6 4.7 55 4.1 SSE 20 28 11 15 1023.9 1023.6 0.0
25/12:00am 13.2 8.3 5.1 58 3.8 SSE 20 26 11 14 1023.7 1023.4 0.0
 
Date/Time
EDT
Temp
°C
App
Temp
°C
Dew
Point
°C
Rel
Hum
%
Delta-T
°C
Wind Press
QNH
hPa
Press
MSL
hPa
Rain since
9am
mm
Dir  Spd
km/h
Gust
km/h
Spd
kts
Gust
kts
24/11:30pm 12.6 8.4 5.5 62 3.3 SSE 17 20 9 11 1023.6 1023.3 0.0
24/11:00pm 11.8 7.6 5.9 67 2.8 S 17 19 9 10 1023.5 1023.2 0.0
24/10:30pm 12.1 8.3 5.9 66 2.9 SSE 15 17 8 9 1023.5 1023.2 0.0
24/10:00pm 13.0 8.9 6.4 64 3.2 SSE 17 20 9 11 1023.3 1023.0 0.0
24/09:30pm 13.3 8.8 7.1 66 3.0 SSE 20 26 11 14 1023.1 1022.8 0.0
24/09:00pm 14.2 9.9 7.0 62 3.5 SSE 19 24 10 13 1022.6 1022.3 0.0
24/08:30pm 15.4 10.1 6.7 56 4.3 S 24 37 13 20 1022.0 1021.6 0.0
24/08:00pm 16.9 10.7 6.1 49 5.3 S 28 39 15 21 1021.5 1021.1 0.0
24/07:30pm 19.4 14.0 4.4 37 7.3 S 22 30 12 16 1020.6 1020.2 0.0
24/07:00pm 20.0 14.4 3.7 34 7.8 SSW 22 28 12 15 1020.2 1019.8 0.0
24/06:30pm 20.6 14.7 3.8 33 8.1 SSW 24 41 13 22 1019.9 1019.5 0.0
24/06:00pm 21.1 14.4 3.8 32 8.4 SSW 28 35 15 19 1019.6 1019.2 0.0
24/05:30pm 22.8 17.8 3.4 28 9.4 SSW 19 26 10 14 1019.1 1018.7 0.0
24/05:00pm 22.7 17.6 3.3 28 9.4 SW 19 32 10 17 1018.9 1018.5 0.0
24/04:30pm 23.0 17.9 3.0 27 9.7 S 19 41 10 22 1018.8 1018.4 0.0
24/04:00pm 23.1 19.0 4.1 29 9.4 SSE 15 24 8 13 1018.8 1018.4 0.0
24/03:30pm 22.9 18.1 4.4 30 9.2 SSW 19 28 10 15 1019.2 1018.8 0.0
24/03:00pm 22.5 18.1 4.5 31 8.9 SW 17 28 9 15 1019.3 1018.9 0.0
24/02:30pm 21.1 18.5 5.9 37 7.7 S 9 17 5 9 1019.2 1018.8 0.0
24/02:00pm 21.4 17.9 7.3 40 7.3 SSW 15 22 8 12 1019.5 1019.1 0.0
24/01:30pm 20.7 17.7 9.3 48 6.1 S 15 24 8 13 1019.5 1019.1 0.0
24/01:00pm 19.5 16.1 9.1 51 5.5 SSW 17 24 9 13 1019.7 1019.3 0.0
24/12:30pm 21.0 18.4 10.8 52 5.6 SSW 15 24 8 13 1020.0 1019.6 0.0
24/12:00pm 19.0 17.1 8.9 52 5.3 SSW 9 15 5 8 1020.1 1019.7 0.0
24/11:30am 18.9 16.8 11.2 61 4.2 WSW 13 19 7 10 1020.4 1020.0 0.0
24/11:00am 17.5 15.4 9.9 61 4.0 WSW 11 15 6 8 1020.5 1020.1 0.0
24/10:30am 17.5 16.3 10.4 63 3.8 SW 7 15 4 8 1020.5 1020.1 0.0
24/10:00am 16.4 15.1 11.1 71 2.9 SSW 9 13 5 7 1020.4 1020.0 0.0
24/09:30am 15.6 15.2 12.5 82 1.7 SW 6 9 3 5 1020.3 1019.9 0.0
24/09:00am 13.4 13.9 11.6 89 1.0 CALM 0 0 0 0 1020.3 1019.9 0.0
24/08:30am 12.9 12.3 11.6 92 0.7 NNE 6 7 3 4 1020.2 1019.8 0.0
24/08:00am 12.4 12.8 11.3 93 0.6 CALM 0 0 0 0 1020.0 1019.6 0.0
24/07:30am 12.0 12.0 11.2 95 0.4 SE 2 7 1 4 1019.8 1019.4 0.0
24/07:00am 10.7 8.9 9.3 91 0.7 ENE 9 15 5 8 1019.3 1018.9 0.0
24/06:30am 11.7 10.3 10.9 95 0.4 WNW 9 13 5 7 1019.2 1018.8 0.0
24/06:00am 10.8 8.8 10.0 95 0.4 N 11 17 6 9 1018.9 1018.5 0.0
24/05:30am 9.7 7.7 8.8 94 0.4 WNW 9 11 5 6 1018.6 1018.2 0.0
24/05:00am 10.8 8.7 9.7 93 0.6 SSW 11 13 6 7 1018.3 1017.9 0.0
24/04:30am 10.6 8.9 9.7 94 0.5 S 9 13 5 7 1018.2 1017.8 0.0
24/04:00am 10.4 9.0 8.7 89 0.8 SSW 6 7 3 4 1018.0 1017.7 0.0
24/03:34am 11.3 10.6 9.9 91 0.7 SSE 4 7 2 4 1018.0 1017.7 0.0
24/03:30am 11.5 10.5 10.2 92 0.7 SE 6 7 3 4 1017.9 1017.6 0.0
24/03:15am 10.6 9.0 8.9 89 0.8 E 7 9 4 5 1018.0 1017.7 0.0
24/03:00am 11.9 11.0 10.5 91 0.7 SE 6 7 3 4 1018.4 1018.0 0.0
24/02:30am 11.4 10.1 10.1 92 0.7 S 7 9 4 5 1018.6 1018.2 0.0
24/02:00am 11.7 10.6 10.6 93 0.6 SE 7 9 4 5 1018.7 1018.3 0.0
24/01:30am 13.2 12.4 11.8 91 0.8 NNW 7 9 4 5 1018.9 1018.5 0.0
24/01:00am 13.1 11.4 11.3 89 1.0 WNW 11 13 6 7 1018.8 1018.4 0.0
24/12:30am 13.3 12.1 11.5 89 1.0 NW 9 9 5 5 1018.4 1018.0 0.0
24/12:00am 12.8 11.0 10.9 88 1.0 NNW 11 11 6 6 1018.2 1017.8 0.0
 
Date/Time
EDT
Temp
°C
App
Temp
°C
Dew
Point
°C
Rel
Hum
%
Delta-T
°C
Wind Press
QNH
hPa
Press
MSL
hPa
Rain since
9am
mm
Dir  Spd
km/h
Gust
km/h
Spd
kts
Gust
kts
23/11:30pm 13.1 11.0 11.0 87 1.1 NNW 13 17 7 9 1018.2 1017.8 0.0
23/11:00pm 13.3 10.7 10.8 85 1.3 NNW 15 17 8 9 1018.3 1017.9 0.0
23/10:30pm 14.5 12.1 11.5 82 1.6 NNW 15 17 8 9 1018.2 1017.8 0.0
23/10:00pm 15.7 12.7 11.9 78 2.1 N 19 22 10 12 1017.5 1017.2 0.0
23/09:30pm 16.1 13.1 11.9 76 2.3 N 19 24 10 13 1017.4 1017.1 0.0
23/09:00pm 16.9 13.7 12.0 73 2.7 N 20 26 11 14 1016.9 1016.5 0.0
23/08:30pm 17.6 13.3 12.1 70 3.1 N 26 37 14 20 1016.1 1015.7 0.0
23/08:00pm 18.0 13.7 12.0 68 3.3 N 26 37 14 20 1015.6 1015.2 0.0
23/07:30pm 19.0 13.9 12.0 64 3.9 N 30 37 16 20 1015.1 1014.7 0.0
23/07:00pm 19.6 14.2 12.1 62 4.2 N 32 41 17 22 1014.7 1014.3 0.0
23/06:30pm 20.5 15.6 12.5 60 4.5 N 30 39 16 21 1014.4 1014.0 0.0
23/06:00pm 20.8 14.8 12.2 58 4.9 NNW 35 44 19 24 1014.0 1013.6 0.0
23/05:30pm 21.8 16.5 12.4 55 5.4 NNW 32 43 17 23 1013.7 1013.3 0.0
23/05:00pm 22.1 16.6 12.4 54 5.5 N 33 44 18 24 1013.3 1012.9 0.0

Other Formats:

Comma delimited format used in spreadsheet applications
http://www.bom.gov.au/fwo/IDT60801/IDT60801.95966.axf

JavaScript Object Notation format (JSON) in row-major order
http://www.bom.gov.au/fwo/IDT60801/IDT60801.95966.json